ICAO code: LHPR | IATA code: QGY | AFTN: LHPRZPZX | english | deutsch
Időjárás: 2018-04-25 06:10 (UTC) | Hőmérséklet: 19.5 °C | QNH: 1014.7 hPa | Szél: 1.4 m/s | Részletek
Live ATC LHPR
Webkameránk élőképe

Győr-Pér Repülőtér időjárás adatok

Metar:
METAR LHPR 242145Z AUTO 00000KT CAVOK 13/11 Q1016 RMK BL


Taf:
TAF LHPR 242000Z NIL


Jelenidő:
Nem volt érdemleges időjárási jelenség az elmúlt órában
Időbélyeg: 2018-04-25 06:10:00 UTC
Hőmérséklet:
19.5 °C
 
Harmatpont:
14.3 °C
 
Rel. páratartalom:
71%
 
QNH:
1014.7 hPa
 
Szélsebesség:
1.4 m/s
Max:
3.4 m/s
Szélirány:
210°
 
Csapadék (1 óra):
0.0 mm
 
Látótávolság:
18440 m
 
RVR:
>1500 m RWY30
 
1. felhőréteg mennyisége:
0 octa
 
1. felhőréteg alapja:
m


Az adatokat szolgáltatja
az Országos Meteorológiai Szolgálat
Győr-Pér Repülőtér | H 9099 Pér, Repülőtér | Tel: +36/96/559-200 | Fax: +36/96/559-202

ICAO code: LHPR | IATA code: QGY | AFTN: LHPRZPZX


weboldal tervezés: IRQ